createdAt,value
2023-03-06T00:01:02.130Z,-3.26
2023-03-06T00:03:30.953Z,-3.32
2023-03-06T00:06:00.119Z,-3.10
2023-03-06T00:08:30.032Z,-2.91
2023-03-06T00:10:59.133Z,-3.06
2023-03-06T00:13:30.760Z,-3.10
2023-03-06T00:16:01.818Z,-3.09
2023-03-06T00:18:30.705Z,-3.25
2023-03-06T00:20:59.543Z,-3.13
2023-03-06T00:23:28.502Z,-3.26
2023-03-06T00:25:57.218Z,-3.34
2023-03-06T00:28:26.718Z,-4.19
2023-03-06T00:30:55.444Z,-3.46
2023-03-06T00:33:24.082Z,-3.58
2023-03-06T00:35:55.076Z,-3.70
2023-03-06T00:38:23.995Z,-3.66
2023-03-06T00:40:52.677Z,-3.68
2023-03-06T00:43:22.842Z,-3.80
2023-03-06T00:45:51.584Z,-3.75
2023-03-06T00:48:20.210Z,-3.81
2023-03-06T00:50:49.019Z,-3.90
2023-03-06T00:53:17.618Z,-3.94
2023-03-06T00:55:46.914Z,-4.04
2023-03-06T00:58:15.788Z,-4.10
2023-03-06T01:00:44.892Z,-4.07
2023-03-06T01:03:13.835Z,-4.22
2023-03-06T01:05:42.909Z,-4.19
2023-03-06T01:08:11.834Z,-4.18
2023-03-06T01:10:41.452Z,-4.37
2023-03-06T01:13:10.972Z,-4.31
2023-03-06T01:15:39.671Z,-4.30
2023-03-06T01:18:11.214Z,-4.50
2023-03-06T01:20:40.074Z,-4.52
2023-03-06T01:23:09.519Z,-4.57
2023-03-06T01:25:37.990Z,-4.58
2023-03-06T01:28:07.009Z,-4.42
2023-03-06T01:30:37.361Z,-4.44
2023-03-06T01:33:06.257Z,-4.42
2023-03-06T01:35:35.403Z,-4.64
2023-03-06T01:38:04.138Z,-4.49
2023-03-06T01:40:34.633Z,-4.61
2023-03-06T01:43:43.020Z,-4.49
2023-03-06T01:46:39.574Z,-4.78
2023-03-06T01:49:14.602Z,-4.58
2023-03-06T01:51:54.735Z,-4.61
2023-03-06T01:54:35.875Z,-4.86
2023-03-06T01:57:10.534Z,-4.90
2023-03-06T01:59:41.316Z,-4.90
2023-03-06T02:02:12.825Z,-4.70
2023-03-06T02:04:44.775Z,-4.72
2023-03-06T02:07:16.038Z,-4.84
2023-03-06T02:09:44.748Z,-4.87
2023-03-06T02:12:18.079Z,-5.19
2023-03-06T02:14:47.946Z,-4.77
2023-03-06T02:17:20.678Z,-4.79
2023-03-06T02:20:08.612Z,-4.66
2023-03-06T02:22:55.249Z,-4.63
2023-03-06T02:25:34.739Z,-4.73
2023-03-06T02:28:05.398Z,-4.67
2023-03-06T02:30:34.565Z,-4.62
2023-03-06T02:33:04.996Z,-4.79
2023-03-06T02:35:39.252Z,-4.65
2023-03-06T02:38:12.643Z,-4.53
2023-03-06T02:40:47.820Z,-4.86
2023-03-06T02:43:21.156Z,-4.93
2023-03-06T02:45:51.618Z,-4.59
2023-03-06T02:48:21.844Z,-4.51
2023-03-06T02:50:50.460Z,-4.46
2023-03-06T02:53:20.873Z,-4.33
2023-03-06T02:55:50.420Z,-4.29
2023-03-06T02:58:22.534Z,-4.11
2023-03-06T03:00:51.557Z,-4.19
2023-03-06T03:03:21.993Z,-4.09
2023-03-06T03:05:50.669Z,-4.16
2023-03-06T03:08:25.994Z,-4.03
2023-03-06T03:10:59.171Z,-4.08
2023-03-06T03:13:34.580Z,-4.06
2023-03-06T03:16:09.721Z,-4.00
2023-03-06T03:18:38.499Z,-4.00
2023-03-06T03:21:13.435Z,-3.88
2023-03-06T03:23:42.781Z,-3.95
2023-03-06T03:26:13.759Z,-3.87
2023-03-06T03:28:46.227Z,-3.68
2023-03-06T03:31:18.641Z,-3.54
2023-03-06T03:33:47.565Z,-3.39
2023-03-06T03:36:18.976Z,-3.38
2023-03-06T03:38:50.534Z,-3.31
2023-03-06T03:41:19.955Z,-3.18
2023-03-06T03:43:49.224Z,-3.05
2023-03-06T03:46:18.826Z,-3.05
2023-03-06T03:48:48.063Z,-2.93
2023-03-06T03:51:18.270Z,-2.84
2023-03-06T03:53:51.507Z,-2.77
2023-03-06T03:56:24.079Z,-2.68
2023-03-06T03:59:07.789Z,-2.74
2023-03-06T04:01:43.545Z,-2.81
2023-03-06T04:04:12.374Z,-3.07
2023-03-06T04:06:42.812Z,-2.88
2023-03-06T04:09:12.266Z,-2.85
2023-03-06T04:11:41.413Z,-2.79
2023-03-06T04:14:13.354Z,-2.68
2023-03-06T04:16:42.141Z,-2.77
2023-03-06T04:19:12.313Z,-2.85
2023-03-06T04:21:41.643Z,-2.95
2023-03-06T04:24:10.781Z,-2.89
2023-03-06T04:26:39.637Z,-2.62
2023-03-06T04:29:08.514Z,-2.69
2023-03-06T04:31:37.308Z,-2.82
2023-03-06T04:34:06.097Z,-2.65
2023-03-06T04:36:36.458Z,-2.48
2023-03-06T04:39:09.387Z,-2.37
2023-03-06T04:41:38.487Z,-2.19
2023-03-06T04:44:07.696Z,-2.08
2023-03-06T04:46:36.998Z,-2.56
2023-03-06T04:49:05.787Z,-2.02
2023-03-06T04:51:37.566Z,-2.27
2023-03-06T04:54:06.745Z,-2.21
2023-03-06T04:56:35.848Z,-2.04
2023-03-06T04:59:05.400Z,-2.01
2023-03-06T05:01:34.163Z,-2.11
2023-03-06T05:04:03.056Z,-1.93
2023-03-06T05:06:32.074Z,-1.74
2023-03-06T05:09:01.088Z,-2.07
2023-03-06T05:11:32.074Z,-2.02
2023-03-06T05:14:03.906Z,-1.54
2023-03-06T05:16:32.764Z,-1.55
2023-03-06T05:19:01.674Z,-1.41
2023-03-06T05:21:31.199Z,-1.95
2023-03-06T05:24:00.242Z,-1.47
2023-03-06T05:26:28.844Z,-1.74
2023-03-06T05:28:57.926Z,-1.67
2023-03-06T05:31:26.837Z,-1.64
2023-03-06T05:33:56.045Z,-1.90
2023-03-06T05:36:24.826Z,-2.24
2023-03-06T05:38:54.168Z,-2.14
2023-03-06T05:41:23.004Z,-2.43
2023-03-06T05:43:53.891Z,-2.56
2023-03-06T05:46:22.970Z,-2.74
2023-03-06T05:48:53.990Z,-2.70
2023-03-06T05:51:22.913Z,-2.63
2023-03-06T05:53:51.630Z,-2.72
2023-03-06T05:56:20.410Z,-2.64
2023-03-06T05:58:49.903Z,-2.60
2023-03-06T06:01:21.968Z,-2.54
2023-03-06T06:03:50.789Z,-2.45
2023-03-06T06:06:19.836Z,-2.47
2023-03-06T06:08:48.919Z,-2.31
2023-03-06T06:11:19.127Z,-2.32
2023-03-06T06:13:50.255Z,-2.00
2023-03-06T06:16:20.184Z,-2.13
2023-03-06T06:18:49.248Z,-2.32
2023-03-06T06:21:18.308Z,-2.04
2023-03-06T06:23:47.732Z,-1.95
2023-03-06T06:26:16.567Z,-2.05
2023-03-06T06:28:45.240Z,-2.13
2023-03-06T06:31:14.855Z,-1.96
2023-03-06T06:33:44.631Z,-1.80
2023-03-06T06:36:20.812Z,-1.61
2023-03-06T06:38:50.367Z,-1.50
2023-03-06T06:41:52.881Z,-1.48
2023-03-06T06:44:09.486Z,-1.22
2023-03-06T06:49:27.567Z,-0.81
2023-03-06T06:51:56.452Z,-0.81
2023-03-06T06:54:25.708Z,-0.72
2023-03-06T06:56:54.897Z,-0.46
2023-03-06T06:59:24.528Z,-0.54
2023-03-06T07:01:53.924Z,-0.41
2023-03-06T07:04:22.718Z,-0.30
2023-03-06T07:06:51.699Z,-0.17
2023-03-06T07:09:21.038Z,-0.39
2023-03-06T07:11:49.803Z,-0.27
2023-03-06T07:14:18.869Z,-0.30
2023-03-06T07:16:47.695Z,-0.10
2023-03-06T07:19:16.588Z,-0.10
2023-03-06T07:21:45.232Z,-0.11
2023-03-06T07:24:13.942Z,-0.05
2023-03-06T07:26:47.840Z,0.07
2023-03-06T07:29:17.066Z,0.33
2023-03-06T07:31:46.283Z,0.49
2023-03-06T07:34:16.336Z,0.42
2023-03-06T07:36:45.221Z,0.56
2023-03-06T07:39:13.929Z,0.44
2023-03-06T07:41:42.858Z,0.58
2023-03-06T07:44:11.894Z,0.42
2023-03-06T07:46:40.762Z,0.56
2023-03-06T07:49:09.734Z,0.75
2023-03-06T07:51:38.484Z,0.80
2023-03-06T07:54:07.339Z,0.99
2023-03-06T07:56:36.354Z,0.98
2023-03-06T07:59:05.035Z,0.71
2023-03-06T08:01:34.037Z,1.17
2023-03-06T08:04:02.905Z,1.22
2023-03-06T08:06:31.803Z,1.54
2023-03-06T08:09:01.302Z,1.58
2023-03-06T08:11:31.584Z,1.41
2023-03-06T08:14:00.718Z,1.44
2023-03-06T08:16:32.618Z,1.44
2023-03-06T08:19:01.334Z,1.28
2023-03-06T08:21:33.261Z,1.25
2023-03-06T08:24:02.243Z,1.18
2023-03-06T08:26:33.650Z,1.09
2023-03-06T08:29:03.628Z,0.59
2023-03-06T08:31:32.304Z,1.17
2023-03-06T08:34:06.809Z,1.11
2023-03-06T08:36:35.649Z,0.91
2023-03-06T08:39:05.340Z,0.94
2023-03-06T08:41:34.992Z,0.62
2023-03-06T08:44:04.378Z,0.69
2023-03-06T08:46:34.187Z,0.69
2023-03-06T08:49:03.431Z,0.48
2023-03-06T08:51:32.308Z,0.63
2023-03-06T08:54:01.452Z,0.48
2023-03-06T08:56:34.986Z,0.56
2023-03-06T08:59:06.589Z,0.64
2023-03-06T09:01:38.272Z,0.54
2023-03-06T09:04:11.522Z,0.60
2023-03-06T09:06:43.439Z,0.54
2023-03-06T09:09:13.185Z,0.48
2023-03-06T09:11:41.829Z,0.55
2023-03-06T09:14:10.759Z,0.51
2023-03-06T09:16:39.780Z,0.51
2023-03-06T09:19:08.687Z,0.70
2023-03-06T09:21:37.530Z,0.57
2023-03-06T09:24:06.531Z,0.60
2023-03-06T09:26:45.649Z,0.27
2023-03-06T09:29:16.955Z,0.63
2023-03-06T09:31:46.208Z,0.61
2023-03-06T09:34:15.104Z,0.71
2023-03-06T09:36:56.474Z,0.64
2023-03-06T09:39:27.126Z,0.67
2023-03-06T09:41:58.315Z,0.79
2023-03-06T09:44:33.079Z,0.54
2023-03-06T09:47:11.672Z,0.61
2023-03-06T09:50:31.031Z,0.81
2023-03-06T09:53:17.970Z,0.81
2023-03-06T09:56:15.474Z,0.69
2023-03-06T09:58:49.880Z,0.60
2023-03-06T10:01:26.876Z,0.78
2023-03-06T10:03:57.595Z,0.69
2023-03-06T10:06:50.167Z,0.72
2023-03-06T10:09:27.979Z,0.84
2023-03-06T10:12:07.567Z,0.67
2023-03-06T10:14:46.656Z,0.82
2023-03-06T10:17:20.089Z,0.87
2023-03-06T10:19:50.293Z,0.70
2023-03-06T10:22:40.202Z,0.69
2023-03-06T10:25:23.441Z,0.75
2023-03-06T10:28:17.506Z,0.35
2023-03-06T10:31:08.609Z,0.80
2023-03-06T10:33:58.212Z,0.86
2023-03-06T10:36:29.185Z,0.67
2023-03-06T10:38:59.788Z,0.69
2023-03-06T10:41:36.143Z,0.81
2023-03-06T10:44:05.023Z,0.82
2023-03-06T10:46:43.055Z,0.73
2023-03-06T10:49:30.926Z,0.86
2023-03-06T10:52:08.333Z,0.69
2023-03-06T10:54:40.037Z,0.82
2023-03-06T10:57:30.443Z,0.99
2023-03-06T11:00:01.912Z,0.98
2023-03-06T11:02:34.323Z,1.02
2023-03-06T11:05:04.386Z,1.11
2023-03-06T11:07:35.699Z,1.13
2023-03-06T11:10:19.861Z,1.30
2023-03-06T11:13:02.254Z,1.29
2023-03-06T11:15:31.541Z,1.22
2023-03-06T11:18:31.681Z,1.21
2023-03-06T11:21:00.502Z,0.97
2023-03-06T11:23:47.880Z,1.16
2023-03-06T11:26:20.948Z,1.31
2023-03-06T11:28:58.545Z,1.29
2023-03-06T11:31:38.648Z,1.02
2023-03-06T11:34:13.304Z,1.27
2023-03-06T11:37:07.962Z,1.29
2023-03-06T11:40:00.151Z,1.22
2023-03-06T11:42:40.254Z,0.97
2023-03-06T11:45:23.829Z,0.55
2023-03-06T11:48:18.311Z,1.00
2023-03-06T11:50:56.214Z,0.49
2023-03-06T11:53:33.892Z,0.44
2023-03-06T11:56:15.134Z,0.84
2023-03-06T11:59:14.476Z,0.79
2023-03-06T12:02:01.339Z,0.72
2023-03-06T12:04:52.038Z,0.55
2023-03-06T12:07:30.357Z,0.70
2023-03-06T12:10:14.482Z,0.67
2023-03-06T12:13:26.837Z,0.59
2023-03-06T12:16:25.699Z,0.59
2023-03-06T12:19:12.637Z,0.43
2023-03-06T12:22:03.803Z,0.53
2023-03-06T12:25:10.481Z,0.52
2023-03-06T12:28:26.985Z,0.38
2023-03-06T12:31:13.866Z,0.50
2023-03-06T12:34:05.835Z,0.31
2023-03-06T12:36:48.157Z,0.36
2023-03-06T12:39:31.788Z,0.35
2023-03-06T12:42:23.261Z,0.11
2023-03-06T12:45:24.117Z,-0.11
2023-03-06T12:47:57.931Z,0.14
2023-03-06T12:50:33.384Z,0.20
2023-03-06T12:53:06.364Z,0.14
2023-03-06T12:55:54.002Z,0.01
2023-03-06T12:58:31.600Z,0.17
2023-03-06T13:01:24.915Z,0.09
2023-03-06T13:04:50.585Z,0.11
2023-03-06T13:07:57.496Z,0.06
2023-03-06T13:10:34.290Z,-0.06
2023-03-06T13:13:23.944Z,0.01
2023-03-06T13:16:19.572Z,-0.05
2023-03-06T13:18:54.587Z,-0.63
2023-03-06T13:21:46.666Z,-0.17
2023-03-06T13:24:22.723Z,-0.34
2023-03-06T13:26:58.063Z,-0.22
2023-03-06T13:29:38.390Z,-0.30
2023-03-06T13:32:20.556Z,-0.36
2023-03-06T13:34:52.485Z,-0.57
2023-03-06T13:37:26.079Z,-0.45
2023-03-06T13:40:02.330Z,-0.45
2023-03-06T13:42:38.840Z,-0.49
2023-03-06T13:45:28.548Z,-0.55
2023-03-06T13:50:49.393Z,-0.72
2023-03-06T13:53:41.562Z,-0.99
2023-03-06T13:56:29.756Z,-0.74
2023-03-06T13:59:25.665Z,-0.79
2023-03-06T14:02:32.068Z,-0.80
2023-03-06T14:05:03.203Z,-1.11
2023-03-06T14:07:52.873Z,-0.97
2023-03-06T14:10:26.521Z,-1.08
2023-03-06T14:13:35.161Z,-0.96
2023-03-06T14:16:18.627Z,-1.13
2023-03-06T14:18:53.045Z,-1.06
2023-03-06T14:21:40.714Z,-1.29
2023-03-06T14:24:19.670Z,-1.20
2023-03-06T14:26:52.984Z,-1.40
2023-03-06T14:29:29.745Z,-1.66
2023-03-06T14:31:59.720Z,-1.44
2023-03-06T14:34:31.053Z,-1.47
2023-03-06T14:37:03.493Z,-1.77
2023-03-06T14:39:41.378Z,-1.63
2023-03-06T14:42:20.298Z,-1.90
2023-03-06T14:45:00.736Z,-1.85
2023-03-06T14:47:34.336Z,-1.78
2023-03-06T14:50:22.702Z,-1.84
2023-03-06T14:53:23.200Z,-1.90
2023-03-06T14:55:58.767Z,-2.09
2023-03-06T14:58:58.642Z,-2.06
2023-03-06T15:01:38.157Z,-3.04
2023-03-06T15:04:27.032Z,-2.28
2023-03-06T15:06:57.496Z,-2.32
2023-03-06T15:09:35.580Z,-2.48
2023-03-06T15:12:10.052Z,-2.38
2023-03-06T15:14:40.355Z,-2.44
2023-03-06T15:17:18.522Z,-2.48
2023-03-06T15:19:55.481Z,-2.57
2023-03-06T15:22:41.035Z,-2.63
2023-03-06T15:25:12.890Z,-2.65
2023-03-06T15:27:41.800Z,-2.82
2023-03-06T15:30:25.508Z,-2.92
2023-03-06T15:33:29.524Z,-3.26
2023-03-06T15:36:06.859Z,-3.08
2023-03-06T15:38:43.895Z,-3.06
2023-03-06T15:41:34.374Z,-3.07
2023-03-06T15:44:09.739Z,-3.19
2023-03-06T15:46:38.439Z,-3.18
2023-03-06T15:49:15.183Z,-3.74
2023-03-06T15:51:44.125Z,-3.25
2023-03-06T15:54:12.991Z,-3.78
2023-03-06T15:56:44.596Z,-3.35
2023-03-06T15:59:32.132Z,-3.39
2023-03-06T16:02:14.406Z,-3.97
2023-03-06T16:04:43.412Z,-3.53
2023-03-06T16:07:13.240Z,-3.66
2023-03-06T16:09:43.469Z,-3.72
2023-03-06T16:12:22.222Z,-3.75
2023-03-06T16:14:51.128Z,-3.80
2023-03-06T16:17:20.430Z,-3.87
2023-03-06T16:19:49.115Z,-3.92
2023-03-06T16:22:17.948Z,-3.89
2023-03-06T16:24:47.203Z,-4.00
2023-03-06T16:27:20.600Z,-4.02
2023-03-06T16:29:49.085Z,-4.73
2023-03-06T16:32:17.808Z,-4.15
2023-03-06T16:34:46.687Z,-4.25
2023-03-06T16:37:15.480Z,-4.22
2023-03-06T16:39:44.960Z,-4.39
2023-03-06T16:42:13.808Z,-4.34
2023-03-06T16:44:43.345Z,-4.38
2023-03-06T16:47:13.188Z,-5.03
2023-03-06T16:49:41.969Z,-4.72
2023-03-06T16:52:12.171Z,-4.31
2023-03-06T16:54:41.665Z,-4.41
2023-03-06T16:57:15.298Z,-4.61
2023-03-06T16:59:43.986Z,-4.46
2023-03-06T17:02:13.614Z,-4.46
2023-03-06T17:04:42.350Z,-5.08
2023-03-06T17:07:11.197Z,-4.62
2023-03-06T17:09:40.001Z,-5.13
2023-03-06T17:12:09.701Z,-4.69
2023-03-06T17:14:39.242Z,-4.61
2023-03-06T17:17:08.165Z,-4.83
2023-03-06T17:19:37.568Z,-4.91
2023-03-06T17:22:06.499Z,-4.85
2023-03-06T17:24:37.083Z,-5.02
2023-03-06T17:27:05.595Z,-4.89
2023-03-06T17:29:34.250Z,-6.11
2023-03-06T17:32:04.286Z,-5.29
2023-03-06T17:34:33.226Z,-5.39
2023-03-06T17:37:04.812Z,-5.38
2023-03-06T17:39:36.020Z,-5.25
2023-03-06T17:42:06.284Z,-5.30
2023-03-06T17:44:35.571Z,-5.87
2023-03-06T17:47:05.356Z,-5.29
2023-03-06T17:49:34.215Z,-5.33
2023-03-06T17:52:06.940Z,-5.47
2023-03-06T17:54:35.967Z,-5.49
2023-03-06T17:57:06.364Z,-5.55
2023-03-06T17:59:35.358Z,-5.43
2023-03-06T18:02:04.290Z,-5.38
2023-03-06T18:04:32.860Z,-5.52
2023-03-06T18:07:01.954Z,-5.54
2023-03-06T18:09:30.593Z,-5.91
2023-03-06T18:11:59.453Z,-5.64
2023-03-06T18:14:28.239Z,-5.93
2023-03-06T18:16:56.976Z,-5.35
2023-03-06T18:19:25.673Z,-5.47
2023-03-06T18:21:54.154Z,-6.78
2023-03-06T18:24:23.065Z,-5.61
2023-03-06T18:26:52.096Z,-5.53
2023-03-06T18:29:20.812Z,-5.72
2023-03-06T18:31:51.236Z,-6.11
2023-03-06T18:34:19.872Z,-5.65
2023-03-06T18:36:51.477Z,-5.71
2023-03-06T18:39:22.212Z,-5.65
2023-03-06T18:41:51.181Z,-5.83
2023-03-06T18:44:19.873Z,-5.94
2023-03-06T18:46:48.260Z,-6.35
2023-03-06T18:49:17.047Z,-5.94
2023-03-06T18:51:45.757Z,-5.89
2023-03-06T18:54:14.278Z,-6.20
2023-03-06T18:56:45.324Z,-6.24
2023-03-06T18:59:18.633Z,-6.17
2023-03-06T19:01:48.700Z,-6.18
2023-03-06T19:04:17.590Z,-6.26
2023-03-06T19:06:48.677Z,-6.29
2023-03-06T19:09:17.598Z,-6.45
2023-03-06T19:11:47.538Z,-6.40
2023-03-06T19:14:16.729Z,-6.41
2023-03-06T19:16:45.549Z,-6.38
2023-03-06T19:19:14.296Z,-6.48
2023-03-06T19:21:43.304Z,-6.61
2023-03-06T19:24:14.801Z,-6.66
2023-03-06T19:26:44.038Z,-6.66
2023-03-06T19:29:12.963Z,-6.77
2023-03-06T19:31:42.882Z,-7.22
2023-03-06T19:34:11.765Z,-6.72
2023-03-06T19:36:41.403Z,-7.23
2023-03-06T19:39:11.685Z,-6.78
2023-03-06T19:41:40.365Z,-6.69
2023-03-06T19:44:12.993Z,-6.79
2023-03-06T19:46:41.788Z,-6.75
2023-03-06T19:49:16.638Z,-6.79
2023-03-06T19:51:45.675Z,-7.44
2023-03-06T19:54:15.169Z,-7.01
2023-03-06T19:56:43.996Z,-6.86
2023-03-06T19:59:12.730Z,-6.92
2023-03-06T20:01:41.723Z,-6.91
2023-03-06T20:04:10.737Z,-6.93
2023-03-06T20:06:39.669Z,-6.98
2023-03-06T20:09:10.216Z,-6.87
2023-03-06T20:11:39.914Z,-6.97
2023-03-06T20:14:09.869Z,-7.00
2023-03-06T20:16:39.184Z,-7.62
2023-03-06T20:19:09.396Z,-7.77
2023-03-06T20:21:39.257Z,-6.95
2023-03-06T20:24:10.576Z,-6.94
2023-03-06T20:26:39.553Z,-7.15
2023-03-06T20:29:08.300Z,-7.03
2023-03-06T20:31:37.578Z,-7.16
2023-03-06T20:34:06.685Z,-7.00
2023-03-06T20:36:39.952Z,-7.12
2023-03-06T20:39:12.115Z,-7.19
2023-03-06T20:41:41.171Z,-8.08
2023-03-06T20:44:13.563Z,-7.10
2023-03-06T20:46:42.640Z,-7.73
2023-03-06T20:49:16.201Z,-7.21
2023-03-06T20:51:45.039Z,-7.23
2023-03-06T20:54:15.958Z,-7.25
2023-03-06T20:56:49.127Z,-7.19
2023-03-06T20:59:18.091Z,-7.21
2023-03-06T21:01:48.567Z,-7.29
2023-03-06T21:04:19.797Z,-7.29
2023-03-06T21:06:48.555Z,-7.25
2023-03-06T21:09:18.504Z,-7.48
2023-03-06T21:11:47.441Z,-7.36
2023-03-06T21:14:16.957Z,-7.46
2023-03-06T21:16:45.722Z,-7.93
2023-03-06T21:19:14.578Z,-7.94
2023-03-06T21:21:43.360Z,-7.46
2023-03-06T21:24:12.342Z,-7.63
2023-03-06T21:26:41.043Z,-7.72
2023-03-06T21:29:10.502Z,-7.79
2023-03-06T21:31:42.156Z,-7.78
2023-03-06T21:34:12.261Z,-7.89
2023-03-06T21:36:41.163Z,-7.90
2023-03-06T21:39:13.001Z,-7.91
2023-03-06T21:41:42.004Z,-7.96
2023-03-06T21:44:12.941Z,-8.11
2023-03-06T21:46:41.751Z,-8.04
2023-03-06T21:49:10.407Z,-8.13
2023-03-06T21:51:39.204Z,-8.04
2023-03-06T21:54:10.351Z,-8.17
2023-03-06T21:56:38.958Z,-8.73
2023-03-06T21:59:07.843Z,-8.70
2023-03-06T22:01:36.624Z,-8.27
2023-03-06T22:04:05.737Z,-8.18
2023-03-06T22:06:34.402Z,-8.11
2023-03-06T22:09:05.028Z,-8.75
2023-03-06T22:11:37.604Z,-8.30
2023-03-06T22:14:07.127Z,-8.34
2023-03-06T22:16:35.976Z,-8.20
2023-03-06T22:19:04.905Z,-8.09
2023-03-06T22:21:33.761Z,-8.07
2023-03-06T22:24:02.605Z,-8.14
2023-03-06T22:26:31.641Z,-8.24
2023-03-06T22:29:00.413Z,-8.16
2023-03-06T22:31:29.955Z,-8.25
2023-03-06T22:34:01.185Z,-8.17
2023-03-06T22:36:33.281Z,-8.21
2023-03-06T22:39:05.019Z,-8.75
2023-03-06T22:41:33.757Z,-8.20
2023-03-06T22:44:03.278Z,-8.25
2023-03-06T22:46:34.738Z,-8.18
2023-03-06T22:49:03.975Z,-8.77
2023-03-06T22:51:32.976Z,-8.17
2023-03-06T22:54:01.903Z,-8.86
2023-03-06T22:56:30.866Z,-8.20
2023-03-06T22:59:00.394Z,-8.32
2023-03-06T23:01:31.834Z,-8.39
2023-03-06T23:04:03.038Z,-8.22
2023-03-06T23:06:34.668Z,-8.28
2023-03-06T23:09:09.480Z,-8.31
2023-03-06T23:11:57.079Z,-8.52
2023-03-06T23:14:44.363Z,-8.43
2023-03-06T23:17:31.821Z,-8.63
2023-03-06T23:20:19.158Z,-9.00
2023-03-06T23:23:06.541Z,-8.38
2023-03-06T23:25:45.033Z,-8.68
2023-03-06T23:28:13.859Z,-8.42
2023-03-06T23:30:43.381Z,-8.48
2023-03-06T23:33:12.202Z,-8.58
2023-03-06T23:35:41.091Z,-8.70
2023-03-06T23:38:09.941Z,-8.68
2023-03-06T23:40:40.145Z,-8.64
2023-03-06T23:43:09.209Z,-8.55
2023-03-06T23:45:40.823Z,-8.62
2023-03-06T23:48:09.602Z,-8.69
2023-03-06T23:50:41.048Z,-8.73
2023-03-06T23:53:09.589Z,-8.77
2023-03-06T23:55:49.064Z,-8.66
2023-03-06T23:58:19.494Z,-8.62
